createdAt,value
2022-12-22T00:00:06.124Z,101073.00
2022-12-22T00:02:56.816Z,101065.00
2022-12-22T00:05:46.740Z,101073.00
2022-12-22T00:08:36.930Z,101071.00
2022-12-22T00:11:28.950Z,101076.00
2022-12-22T00:14:19.548Z,101080.00
2022-12-22T00:17:10.760Z,101083.00
2022-12-22T00:20:01.443Z,101077.00
2022-12-22T00:22:51.632Z,101082.00
2022-12-22T00:25:42.270Z,101092.00
2022-12-22T00:28:34.057Z,101089.00
2022-12-22T00:31:24.366Z,101095.00
2022-12-22T00:34:14.772Z,101089.00
2022-12-22T00:37:04.834Z,101093.00
2022-12-22T00:39:55.448Z,101090.00
2022-12-22T00:42:45.835Z,101083.00
2022-12-22T00:45:36.456Z,101080.00
2022-12-22T00:48:27.858Z,101093.00
2022-12-22T00:51:18.048Z,101095.00
2022-12-22T00:54:08.662Z,101101.00
2022-12-22T00:56:59.171Z,101086.00
2022-12-22T00:59:50.171Z,101076.00
2022-12-22T01:02:40.758Z,101077.00
2022-12-22T01:05:31.587Z,101084.00
2022-12-22T01:08:22.456Z,101074.00
2022-12-22T01:11:12.875Z,101079.00
2022-12-22T01:14:02.967Z,101060.00
2022-12-22T01:16:53.486Z,101071.00
2022-12-22T01:19:43.530Z,101074.00
2022-12-22T01:22:35.755Z,101062.00
2022-12-22T01:25:33.625Z,101065.00
2022-12-22T01:28:24.281Z,101064.00
2022-12-22T01:31:16.732Z,101064.00
2022-12-22T01:34:05.869Z,101057.00
2022-12-22T01:36:56.088Z,101070.00
2022-12-22T01:39:46.633Z,101070.00
2022-12-22T01:42:38.052Z,101070.00
2022-12-22T01:45:41.982Z,101069.00
2022-12-22T01:48:37.475Z,101067.00
2022-12-22T01:51:32.202Z,101071.00
2022-12-22T01:54:22.578Z,101074.00
2022-12-22T01:57:13.090Z,101068.00
2022-12-22T02:00:04.315Z,101056.00
2022-12-22T02:02:55.191Z,101059.00
2022-12-22T02:05:45.325Z,101054.00
2022-12-22T02:08:46.346Z,101063.00
2022-12-22T02:11:38.467Z,101059.00
2022-12-22T02:14:36.274Z,101070.00
2022-12-22T02:17:39.916Z,101068.00
2022-12-22T02:20:51.349Z,101058.00
2022-12-22T02:24:00.964Z,101055.00
2022-12-22T02:26:59.441Z,101063.00
2022-12-22T02:29:51.215Z,101056.00
2022-12-22T02:32:42.499Z,101049.00
2022-12-22T02:35:38.925Z,101050.00
2022-12-22T02:38:39.725Z,101047.00
2022-12-22T02:41:34.889Z,101049.00
2022-12-22T02:44:41.875Z,101046.00
2022-12-22T02:47:59.237Z,101051.00
2022-12-22T02:50:53.596Z,101043.00
2022-12-22T02:53:45.216Z,101040.00
2022-12-22T02:56:35.813Z,101043.00
2022-12-22T02:59:25.814Z,101051.00
2022-12-22T03:02:21.593Z,101051.00
2022-12-22T03:05:11.703Z,101050.00
2022-12-22T03:08:08.007Z,101041.00
2022-12-22T03:11:05.196Z,101042.00
2022-12-22T03:13:55.587Z,101043.00
2022-12-22T03:16:45.919Z,101042.00
2022-12-22T03:19:36.381Z,101048.00
2022-12-22T03:22:26.714Z,101044.00
2022-12-22T03:25:17.187Z,101047.00
2022-12-22T03:27:50.089Z,101042.00
2022-12-22T03:30:23.251Z,101049.00
2022-12-22T03:32:56.301Z,101049.00
2022-12-22T03:35:29.315Z,101038.00
2022-12-22T03:38:03.891Z,101037.00
2022-12-22T03:40:37.036Z,101035.00
2022-12-22T03:43:27.565Z,101041.00
2022-12-22T03:46:14.170Z,101041.00
2022-12-22T03:48:48.338Z,101030.00
2022-12-22T03:51:21.749Z,101031.00
2022-12-22T03:53:54.710Z,101024.00
2022-12-22T03:56:27.604Z,101012.00
2022-12-22T03:59:00.613Z,101013.00
2022-12-22T04:01:33.803Z,101017.00
2022-12-22T04:04:07.143Z,101017.00
2022-12-22T04:06:40.140Z,101006.00
2022-12-22T04:09:13.063Z,101000.00
2022-12-22T04:12:03.481Z,101005.00
2022-12-22T04:14:36.376Z,101004.00
2022-12-22T04:17:10.107Z,101004.00
2022-12-22T04:19:43.136Z,101010.00
2022-12-22T04:22:16.494Z,101008.00
2022-12-22T04:24:49.772Z,101004.00
2022-12-22T04:27:22.846Z,101009.00
2022-12-22T04:29:55.906Z,101003.00
2022-12-22T04:32:28.613Z,101005.00
2022-12-22T04:35:01.578Z,101012.00
2022-12-22T04:37:34.759Z,101005.00
2022-12-22T04:40:09.176Z,101014.00
2022-12-22T04:42:42.382Z,101024.00
2022-12-22T04:45:16.078Z,101015.00
2022-12-22T04:47:49.245Z,101016.00
2022-12-22T04:50:22.035Z,101024.00
2022-12-22T04:52:54.877Z,101017.00
2022-12-22T04:55:27.746Z,101021.00
2022-12-22T04:58:00.751Z,101016.00
2022-12-22T05:00:48.655Z,101014.00
2022-12-22T05:03:21.177Z,101015.00
2022-12-22T05:05:54.180Z,101014.00
2022-12-22T05:08:27.060Z,101002.00
2022-12-22T05:10:59.893Z,101015.00
2022-12-22T05:13:33.111Z,101008.00
2022-12-22T05:16:19.144Z,101002.00
2022-12-22T05:18:52.019Z,100999.00
2022-12-22T05:21:26.246Z,101004.00
2022-12-22T05:23:59.401Z,101003.00
2022-12-22T05:26:32.329Z,101005.00
2022-12-22T05:29:05.330Z,100994.00
2022-12-22T05:31:41.869Z,101003.00
2022-12-22T05:34:12.828Z,100999.00
2022-12-22T05:36:45.775Z,101009.00
2022-12-22T05:39:18.709Z,101014.00
2022-12-22T05:41:51.742Z,101014.00
2022-12-22T05:44:25.386Z,101007.00
2022-12-22T05:46:58.290Z,101013.00
2022-12-22T05:49:31.059Z,101024.00
2022-12-22T05:52:04.121Z,101032.00
2022-12-22T05:54:37.246Z,101009.00
2022-12-22T05:57:10.118Z,101021.00
2022-12-22T05:59:43.507Z,101027.00
2022-12-22T06:02:16.656Z,101033.00
2022-12-22T06:04:49.533Z,101037.00
2022-12-22T06:07:23.172Z,101031.00
2022-12-22T06:09:56.593Z,101033.00
2022-12-22T06:12:29.602Z,101037.00
2022-12-22T06:15:02.425Z,101041.00
2022-12-22T06:17:39.096Z,101035.00
2022-12-22T06:20:09.561Z,101042.00
2022-12-22T06:22:42.442Z,101038.00
2022-12-22T06:25:18.525Z,101036.00
2022-12-22T06:27:50.812Z,101035.00
2022-12-22T06:30:30.913Z,101047.00
2022-12-22T06:32:57.843Z,101031.00
2022-12-22T06:35:30.650Z,101044.00
2022-12-22T06:38:03.868Z,101047.00
2022-12-22T06:40:36.886Z,101041.00
2022-12-22T06:43:12.992Z,101042.00
2022-12-22T06:45:47.741Z,101051.00
2022-12-22T06:48:26.166Z,101046.00
2022-12-22T06:51:03.159Z,101054.00
2022-12-22T06:53:35.906Z,101053.00
2022-12-22T06:56:09.441Z,101057.00
2022-12-22T06:58:42.660Z,101060.00
2022-12-22T07:01:16.446Z,101062.00
2022-12-22T07:03:49.441Z,101066.00
2022-12-22T07:06:22.297Z,101057.00
2022-12-22T07:08:55.215Z,101065.00
2022-12-22T07:11:28.131Z,101065.00
2022-12-22T07:14:01.183Z,101071.00
2022-12-22T07:16:34.290Z,101073.00
2022-12-22T07:19:07.566Z,101083.00
2022-12-22T07:21:40.757Z,101087.00
2022-12-22T07:24:14.024Z,101096.00
2022-12-22T07:26:47.553Z,101102.00
2022-12-22T07:29:20.980Z,101107.00
2022-12-22T07:31:54.383Z,101104.00
2022-12-22T07:34:27.408Z,101108.00
2022-12-22T07:37:01.015Z,101102.00
2022-12-22T07:39:33.868Z,101112.00
2022-12-22T07:42:24.892Z,101116.00
2022-12-22T07:44:58.651Z,101121.00
2022-12-22T07:47:35.338Z,101119.00
2022-12-22T07:50:23.482Z,101123.00
2022-12-22T07:53:07.671Z,101125.00
2022-12-22T07:55:41.071Z,101131.00
2022-12-22T07:58:13.935Z,101135.00
2022-12-22T08:00:46.971Z,101139.00
2022-12-22T08:03:20.169Z,101146.00
2022-12-22T08:05:53.367Z,101149.00
2022-12-22T08:08:26.103Z,101147.00
2022-12-22T08:10:58.973Z,101151.00
2022-12-22T08:13:32.080Z,101151.00
2022-12-22T08:16:09.917Z,101160.00
2022-12-22T08:18:43.977Z,101159.00
2022-12-22T08:21:20.154Z,101165.00
2022-12-22T08:23:54.004Z,101172.00
2022-12-22T08:26:37.903Z,101172.00
2022-12-22T08:29:18.833Z,101174.00
2022-12-22T08:31:51.900Z,101179.00
2022-12-22T08:34:25.021Z,101176.00
2022-12-22T08:36:59.576Z,101170.00
2022-12-22T08:39:40.550Z,101170.00
2022-12-22T08:42:18.349Z,101165.00
2022-12-22T08:44:52.419Z,101166.00
2022-12-22T08:47:26.582Z,101172.00
2022-12-22T08:49:59.612Z,101172.00
2022-12-22T08:52:36.844Z,101183.00
2022-12-22T08:55:10.034Z,101185.00
2022-12-22T08:57:42.880Z,101194.00
2022-12-22T09:00:17.010Z,101182.00
2022-12-22T09:02:50.146Z,101198.00
2022-12-22T09:05:23.110Z,101201.00
2022-12-22T09:07:56.028Z,101201.00
2022-12-22T09:10:28.908Z,101212.00
2022-12-22T09:13:02.062Z,101209.00
2022-12-22T09:15:34.976Z,101207.00
2022-12-22T09:18:07.953Z,101216.00
2022-12-22T09:20:40.875Z,101219.00
2022-12-22T09:23:13.739Z,101224.00
2022-12-22T09:25:46.765Z,101221.00
2022-12-22T09:28:20.039Z,101221.00
2022-12-22T09:30:56.674Z,101226.00
2022-12-22T09:33:29.698Z,101224.00
2022-12-22T09:36:02.756Z,101228.00
2022-12-22T09:38:35.769Z,101236.00
2022-12-22T09:41:16.330Z,101234.00
2022-12-22T09:43:49.310Z,101232.00
2022-12-22T09:46:27.368Z,101228.00
2022-12-22T09:49:01.470Z,101230.00
2022-12-22T09:51:36.032Z,101221.00
2022-12-22T09:54:09.169Z,101222.00
2022-12-22T09:56:42.196Z,101215.00
2022-12-22T09:59:22.280Z,101228.00
2022-12-22T10:02:03.634Z,101227.00
2022-12-22T10:04:47.503Z,101229.00
2022-12-22T10:07:42.850Z,101220.00
2022-12-22T10:10:28.047Z,101231.00
2022-12-22T10:13:05.427Z,101220.00
2022-12-22T10:15:43.093Z,101215.00
2022-12-22T10:18:17.772Z,101214.00
2022-12-22T10:20:53.033Z,101217.00
2022-12-22T10:23:32.700Z,101206.00
2022-12-22T10:26:29.804Z,101207.00
2022-12-22T10:29:08.604Z,101206.00
2022-12-22T10:31:43.845Z,101203.00
2022-12-22T10:34:22.577Z,101205.00
2022-12-22T10:36:57.607Z,101201.00
2022-12-22T10:39:32.201Z,101207.00
2022-12-22T10:42:16.037Z,101199.00
2022-12-22T10:44:53.230Z,101198.00
2022-12-22T10:47:31.989Z,101197.00
2022-12-22T10:50:05.584Z,101201.00
2022-12-22T10:52:38.791Z,101200.00
2022-12-22T10:55:25.372Z,101205.00
2022-12-22T10:58:15.401Z,101208.00
2022-12-22T11:00:48.476Z,101211.00
2022-12-22T11:03:24.770Z,101207.00
2022-12-22T11:05:57.080Z,101217.00
2022-12-22T11:08:30.025Z,101216.00
2022-12-22T11:11:04.538Z,101226.00
2022-12-22T11:13:42.399Z,101230.00
2022-12-22T11:16:28.675Z,101220.00
2022-12-22T11:19:10.090Z,101225.00
2022-12-22T11:21:45.053Z,101225.00
2022-12-22T11:24:25.908Z,101233.00
2022-12-22T11:27:07.068Z,101226.00
2022-12-22T11:30:06.336Z,101227.00
2022-12-22T11:32:50.675Z,101223.00
2022-12-22T11:35:31.158Z,101216.00
2022-12-22T11:38:17.721Z,101216.00
2022-12-22T11:40:53.227Z,101207.00
2022-12-22T11:43:53.571Z,101204.00
2022-12-22T11:46:50.994Z,101202.00
2022-12-22T11:49:42.451Z,101215.00
2022-12-22T11:52:26.791Z,101218.00
2022-12-22T11:55:01.833Z,101218.00
2022-12-22T11:57:40.261Z,101212.00
2022-12-22T12:00:25.028Z,101213.00
2022-12-22T12:03:26.031Z,101210.00
2022-12-22T12:06:30.084Z,101217.00
2022-12-22T12:09:20.482Z,101215.00
2022-12-22T12:12:09.920Z,101213.00
2022-12-22T12:14:56.945Z,101205.00
2022-12-22T12:17:37.416Z,101210.00
2022-12-22T12:20:24.024Z,101208.00
2022-12-22T12:23:10.848Z,101210.00
2022-12-22T12:25:54.954Z,101203.00
2022-12-22T12:28:32.856Z,101193.00
2022-12-22T12:31:07.543Z,101199.00
2022-12-22T12:33:45.323Z,101198.00
2022-12-22T12:36:31.900Z,101197.00
2022-12-22T12:39:21.816Z,101196.00
2022-12-22T12:42:02.686Z,101199.00
2022-12-22T12:44:39.643Z,101199.00
2022-12-22T12:47:33.175Z,101189.00
2022-12-22T12:50:08.704Z,101195.00
2022-12-22T12:52:47.921Z,101193.00
2022-12-22T12:55:31.644Z,101189.00
2022-12-22T12:58:00.800Z,101192.00
2022-12-22T13:00:48.500Z,101191.00
2022-12-22T13:03:37.320Z,101184.00
2022-12-22T13:05:56.634Z,101183.00
2022-12-22T13:08:36.379Z,101182.00
2022-12-22T13:12:01.219Z,101184.00
2022-12-22T13:13:56.713Z,101187.00
2022-12-22T13:16:31.265Z,101186.00
2022-12-22T13:19:06.096Z,101180.00
2022-12-22T13:21:55.045Z,101178.00
2022-12-22T13:24:35.827Z,101180.00
2022-12-22T13:27:10.758Z,101183.00
2022-12-22T13:29:50.736Z,101180.00
2022-12-22T13:32:31.603Z,101181.00
2022-12-22T13:35:30.962Z,101187.00
2022-12-22T13:38:03.794Z,101183.00
2022-12-22T13:40:47.304Z,101179.00
2022-12-22T13:46:19.413Z,101178.00
2022-12-22T13:49:07.431Z,101185.00
2022-12-22T13:51:41.895Z,101182.00
2022-12-22T13:54:17.375Z,101180.00
2022-12-22T13:56:55.194Z,101177.00
2022-12-22T13:59:37.281Z,101167.00
2022-12-22T14:02:15.215Z,101173.00
2022-12-22T14:04:52.552Z,101173.00
2022-12-22T14:07:25.138Z,101180.00
2022-12-22T14:09:59.734Z,101186.00
2022-12-22T14:12:41.497Z,101191.00
2022-12-22T14:15:22.319Z,101198.00
2022-12-22T14:17:55.388Z,101199.00
2022-12-22T14:20:30.064Z,101196.00
2022-12-22T14:23:10.963Z,101193.00
2022-12-22T14:25:45.611Z,101199.00
2022-12-22T14:28:32.220Z,101192.00
2022-12-22T14:31:06.686Z,101195.00
2022-12-22T14:33:39.893Z,101189.00
2022-12-22T14:36:25.514Z,101198.00
2022-12-22T14:39:03.954Z,101200.00
2022-12-22T14:41:45.644Z,101188.00
2022-12-22T14:44:23.733Z,101186.00
2022-12-22T14:47:19.228Z,101194.00
2022-12-22T14:49:57.359Z,101188.00
2022-12-22T14:52:47.180Z,101184.00
2022-12-22T14:55:40.742Z,101175.00
2022-12-22T14:58:18.738Z,101178.00
2022-12-22T15:00:53.956Z,101166.00
2022-12-22T15:03:38.158Z,101168.00
2022-12-22T15:06:33.995Z,101161.00
2022-12-22T15:09:39.701Z,101162.00
2022-12-22T15:11:57.287Z,101160.00
2022-12-22T15:14:38.427Z,101170.00
2022-12-22T15:17:10.882Z,101165.00
2022-12-22T15:19:45.202Z,101168.00
2022-12-22T15:22:18.121Z,101166.00
2022-12-22T15:24:51.366Z,101163.00
2022-12-22T15:27:24.528Z,101164.00
2022-12-22T15:29:57.534Z,101164.00
2022-12-22T15:32:37.965Z,101159.00
2022-12-22T15:35:10.895Z,101163.00
2022-12-22T15:37:48.986Z,101164.00
2022-12-22T15:40:30.990Z,101164.00
2022-12-22T15:43:04.250Z,101164.00
2022-12-22T15:45:38.704Z,101164.00
2022-12-22T15:48:13.800Z,101172.00
2022-12-22T15:50:47.891Z,101162.00
2022-12-22T15:53:25.105Z,101164.00
2022-12-22T15:55:59.911Z,101164.00
2022-12-22T15:58:37.626Z,101170.00
2022-12-22T16:01:11.964Z,101170.00
2022-12-22T16:03:45.115Z,101174.00
2022-12-22T16:06:22.667Z,101171.00
2022-12-22T16:08:57.473Z,101170.00
2022-12-22T16:11:31.778Z,101164.00
2022-12-22T16:14:08.449Z,101168.00
2022-12-22T16:16:42.119Z,101173.00
2022-12-22T16:19:17.134Z,101174.00
2022-12-22T16:21:52.632Z,101164.00
2022-12-22T16:24:33.878Z,101168.00
2022-12-22T16:27:07.728Z,101166.00
2022-12-22T16:29:41.044Z,101163.00
2022-12-22T16:32:34.065Z,101172.00
2022-12-22T16:35:16.369Z,101171.00
2022-12-22T16:37:51.311Z,101159.00
2022-12-22T16:40:25.224Z,101169.00
2022-12-22T16:45:52.437Z,101175.00
2022-12-22T16:48:27.371Z,101183.00
2022-12-22T16:51:00.730Z,101175.00
2022-12-22T16:53:34.654Z,101185.00
2022-12-22T16:56:07.889Z,101183.00
2022-12-22T16:58:40.853Z,101185.00
2022-12-22T17:01:22.590Z,101194.00
2022-12-22T17:04:10.492Z,101198.00
2022-12-22T17:06:53.110Z,101199.00
2022-12-22T17:09:43.962Z,101203.00
2022-12-22T17:12:04.737Z,101204.00
2022-12-22T17:14:39.460Z,101215.00
2022-12-22T17:17:17.127Z,101209.00
2022-12-22T17:19:49.970Z,101203.00
2022-12-22T17:22:33.657Z,101209.00
2022-12-22T17:25:12.616Z,101218.00
2022-12-22T17:27:45.525Z,101215.00
2022-12-22T17:30:23.885Z,101226.00
2022-12-22T17:32:57.165Z,101219.00
2022-12-22T17:35:30.624Z,101226.00
2022-12-22T17:38:03.790Z,101220.00
2022-12-22T17:40:36.818Z,101219.00
2022-12-22T17:43:09.596Z,101219.00
2022-12-22T17:45:42.683Z,101235.00
2022-12-22T17:48:15.883Z,101239.00
2022-12-22T17:50:52.904Z,101241.00
2022-12-22T17:53:27.357Z,101242.00
2022-12-22T17:56:27.622Z,101248.00
2022-12-22T17:59:11.032Z,101248.00
2022-12-22T18:01:40.435Z,101247.00
2022-12-22T18:04:14.924Z,101254.00
2022-12-22T18:06:55.719Z,101260.00
2022-12-22T18:09:35.306Z,101264.00
2022-12-22T18:12:11.928Z,101260.00
2022-12-22T18:14:43.493Z,101261.00
2022-12-22T18:17:35.511Z,101263.00
2022-12-22T18:20:05.018Z,101256.00
2022-12-22T18:22:37.936Z,101263.00
2022-12-22T18:25:24.074Z,101254.00
2022-12-22T18:27:57.093Z,101260.00
2022-12-22T18:30:31.693Z,101249.00
2022-12-22T18:33:06.991Z,101261.00
2022-12-22T18:35:39.128Z,101258.00
2022-12-22T18:38:13.825Z,101249.00
2022-12-22T18:40:47.073Z,101254.00
2022-12-22T18:43:20.160Z,101260.00
2022-12-22T18:45:52.969Z,101258.00
2022-12-22T18:48:29.089Z,101255.00
2022-12-22T18:51:02.078Z,101265.00
2022-12-22T18:53:36.359Z,101257.00
2022-12-22T18:56:11.229Z,101258.00
2022-12-22T18:58:44.705Z,101258.00
2022-12-22T19:01:22.613Z,101254.00
2022-12-22T19:03:57.276Z,101255.00
2022-12-22T19:06:30.115Z,101260.00
2022-12-22T19:09:02.659Z,101259.00
2022-12-22T19:11:36.455Z,101269.00
2022-12-22T19:14:14.283Z,101261.00
2022-12-22T19:16:47.237Z,101265.00
2022-12-22T19:19:21.782Z,101257.00
2022-12-22T19:21:55.576Z,101259.00
2022-12-22T19:24:28.481Z,101250.00
2022-12-22T19:27:01.596Z,101260.00
2022-12-22T19:29:34.508Z,101261.00
2022-12-22T19:32:07.539Z,101260.00
2022-12-22T19:34:40.678Z,101267.00
2022-12-22T19:37:13.710Z,101265.00
2022-12-22T19:39:46.515Z,101269.00
2022-12-22T19:42:21.654Z,101259.00
2022-12-22T19:44:58.616Z,101264.00
2022-12-22T19:47:32.094Z,101262.00
2022-12-22T19:50:04.933Z,101263.00
2022-12-22T19:52:37.950Z,101263.00
2022-12-22T19:55:11.764Z,101266.00
2022-12-22T19:57:46.312Z,101272.00
2022-12-22T20:00:24.427Z,101272.00
2022-12-22T20:02:59.474Z,101277.00
2022-12-22T20:05:36.053Z,101276.00
2022-12-22T20:08:08.942Z,101274.00
2022-12-22T20:10:43.649Z,101274.00
2022-12-22T20:13:20.983Z,101271.00
2022-12-22T20:15:53.793Z,101284.00
2022-12-22T20:18:30.110Z,101293.00
2022-12-22T20:21:04.735Z,101293.00
2022-12-22T20:23:39.860Z,101298.00
2022-12-22T20:26:18.031Z,101297.00
2022-12-22T20:28:51.673Z,101297.00
2022-12-22T20:31:26.586Z,101297.00
2022-12-22T20:33:59.593Z,101299.00
2022-12-22T20:36:37.279Z,101291.00
2022-12-22T20:39:15.186Z,101292.00
2022-12-22T20:41:53.025Z,101294.00
2022-12-22T20:44:22.426Z,101294.00
2022-12-22T20:46:55.627Z,101305.00
2022-12-22T20:49:28.780Z,101304.00
2022-12-22T20:52:05.951Z,101306.00
2022-12-22T20:54:39.744Z,101306.00
2022-12-22T20:57:17.473Z,101306.00
2022-12-22T20:59:55.945Z,101304.00
2022-12-22T21:02:30.784Z,101302.00
2022-12-22T21:05:03.939Z,101297.00
2022-12-22T21:07:36.801Z,101294.00
2022-12-22T21:10:10.871Z,101294.00
2022-12-22T21:12:43.787Z,101296.00
2022-12-22T21:15:28.160Z,101297.00
2022-12-22T21:18:00.998Z,101294.00
2022-12-22T21:20:34.612Z,101291.00
2022-12-22T21:23:07.445Z,101298.00
2022-12-22T21:25:46.223Z,101291.00
2022-12-22T21:28:25.578Z,101284.00
2022-12-22T21:30:58.639Z,101288.00
2022-12-22T21:33:31.430Z,101293.00
2022-12-22T21:36:05.697Z,101292.00
2022-12-22T21:38:38.665Z,101302.00
2022-12-22T21:41:11.587Z,101287.00
2022-12-22T21:43:44.712Z,101294.00
2022-12-22T21:46:17.736Z,101286.00
2022-12-22T21:48:50.591Z,101278.00
2022-12-22T21:51:26.840Z,101282.00
2022-12-22T21:53:59.674Z,101278.00
2022-12-22T21:56:32.791Z,101283.00
2022-12-22T21:59:06.058Z,101283.00
2022-12-22T22:01:39.069Z,101276.00
2022-12-22T22:04:12.480Z,101279.00
2022-12-22T22:06:45.690Z,101273.00
2022-12-22T22:09:19.944Z,101274.00
2022-12-22T22:12:10.427Z,101273.00
2022-12-22T22:14:43.256Z,101269.00
2022-12-22T22:17:16.052Z,101275.00
2022-12-22T22:19:48.808Z,101267.00
2022-12-22T22:22:21.771Z,101267.00
2022-12-22T22:24:58.801Z,101263.00
2022-12-22T22:27:31.580Z,101264.00
2022-12-22T22:30:05.185Z,101268.00
2022-12-22T22:32:37.993Z,101258.00
2022-12-22T22:35:11.238Z,101250.00
2022-12-22T22:37:44.133Z,101250.00
2022-12-22T22:40:18.279Z,101246.00
2022-12-22T22:42:51.495Z,101260.00
2022-12-22T22:45:25.868Z,101260.00
2022-12-22T22:47:58.803Z,101272.00
2022-12-22T22:50:31.917Z,101269.00
2022-12-22T22:53:04.855Z,101267.00
2022-12-22T22:55:37.827Z,101269.00
2022-12-22T22:58:12.035Z,101264.00
2022-12-22T23:00:45.837Z,101270.00
2022-12-22T23:03:18.845Z,101272.00
2022-12-22T23:05:55.802Z,101268.00
2022-12-22T23:08:29.121Z,101267.00
2022-12-22T23:11:02.121Z,101276.00
2022-12-22T23:13:36.394Z,101275.00
2022-12-22T23:16:09.670Z,101264.00
2022-12-22T23:18:43.017Z,101271.00
2022-12-22T23:21:15.804Z,101262.00
2022-12-22T23:23:48.579Z,101265.00
2022-12-22T23:26:21.726Z,101263.00
2022-12-22T23:28:59.148Z,101264.00
2022-12-22T23:31:28.919Z,101254.00
2022-12-22T23:34:01.752Z,101265.00
2022-12-22T23:36:34.848Z,101265.00
2022-12-22T23:39:07.599Z,101258.00
2022-12-22T23:41:40.624Z,101274.00
2022-12-22T23:44:13.683Z,101265.00
2022-12-22T23:46:46.660Z,101264.00
2022-12-22T23:49:21.790Z,101266.00
2022-12-22T23:51:53.778Z,101266.00
2022-12-22T23:54:26.676Z,101271.00
2022-12-22T23:56:59.733Z,101273.00
2022-12-22T23:59:32.661Z,101278.00
